Time;durP1;ratioP1;P1;durP2;ratioP2;P2;SDS_P1;SDS_P2;PMS_P1;PMS_P2;Temp;Humidity;BMP_temperature;BMP_pressure;BME280_temperature;BME280_humidity;BME280_pressure;Samples;Min_cycle;Max_cycle;Signal;HPM_P1;HPM_P2
2022/11/10 00:01:25;;;;;;;5.30;2.17;;;;;;;11.41;100.00;99144.25;6164794;23;20565;-61
2022/11/10 00:04:10;;;;;;;5.60;2.03;;;;;;;11.42;100.00;99148.50;6164039;23;20219;-60
2022/11/10 00:06:55;;;;;;;7.67;3.23;;;;;;;11.39;100.00;99143.56;6168611;23;20287;-60
2022/11/10 00:09:40;;;;;;;5.87;2.10;;;;;;;11.36;100.00;99139.44;6165209;23;20324;-59
2022/11/10 00:12:25;;;;;;;8.07;1.80;;;;;;;11.39;100.00;99148.78;6164401;23;20223;-59
2022/11/10 00:18:15;;;;;;;7.90;2.37;;;;;;;11.37;100.00;99152.38;6165639;23;20710;-61
2022/11/10 00:21:05;;;;;;;7.60;2.33;;;;;;;11.35;100.00;99151.69;6168404;23;20547;-59
2022/11/10 00:23:50;;;;;;;8.37;2.30;;;;;;;11.31;100.00;99154.72;6125852;23;20336;-61
2022/11/10 00:26:35;;;;;;;8.40;2.20;;;;;;;11.30;100.00;99148.69;6166155;23;20286;-60
2022/11/10 00:29:21;;;;;;;8.93;2.20;;;;;;;11.27;100.00;99159.44;6165540;23;22326;-60
2022/11/10 00:32:07;;;;;;;10.87;2.20;;;;;;;11.27;100.00;99156.81;6165306;23;20867;-59
2022/11/10 00:34:54;;;;;;;11.00;2.20;;;;;;;11.31;100.00;99158.19;6168614;23;20743;-61
2022/11/10 00:37:39;;;;;;;9.37;2.10;;;;;;;11.29;100.00;99165.34;6166430;23;20208;-60
2022/11/10 00:40:24;;;;;;;11.83;2.40;;;;;;;11.28;100.00;99166.31;6165189;23;20217;-60
2022/11/10 00:43:09;;;;;;;7.30;2.00;;;;;;;11.28;100.00;99165.47;6165430;23;20294;-59
2022/11/10 00:46:01;;;;;;;5.60;1.80;;;;;;;11.27;100.00;99166.44;5073199;27;20578;-60
2022/11/10 00:48:46;;;;;;;5.83;2.10;;;;;;;11.25;100.00;99163.97;5047290;28;21408;-61
2022/11/10 00:51:31;;;;;;;8.73;1.83;;;;;;;11.24;100.00;99167.53;5062399;28;20268;-61
2022/11/10 00:54:16;;;;;;;6.70;1.80;;;;;;;11.26;100.00;99173.47;5057555;28;20238;-61
2022/11/10 00:57:01;;;;;;;10.27;2.37;;;;;;;11.25;100.00;99174.41;5062767;28;20229;-61
2022/11/10 00:59:46;;;;;;;8.47;2.27;;;;;;;11.26;100.00;99170.84;5061072;28;20317;-60
2022/11/10 01:02:33;;;;;;;4.50;1.90;;;;;;;11.25;100.00;99182.25;5054981;28;20244;-61
2022/11/10 01:05:18;;;;;;;5.97;1.83;;;;;;;11.23;100.00;99189.41;5056898;28;20469;-61
2022/11/10 01:08:03;;;;;;;8.60;1.93;;;;;;;11.23;100.00;99192.03;5051285;28;20235;-61
2022/11/10 01:10:48;;;;;;;6.97;2.20;;;;;;;11.22;100.00;99193.81;5065341;28;20238;-60
2022/11/10 01:13:34;;;;;;;9.37;2.00;;;;;;;11.21;100.00;99199.19;5057510;28;20246;-61
2022/11/10 01:16:21;;;;;;;9.57;2.00;;;;;;;11.19;100.00;99199.31;5058158;28;20328;-66
2022/11/10 01:19:08;;;;;;;11.83;2.10;;;;;;;11.19;100.00;99211.56;5057473;28;20231;-61
2022/11/10 01:21:52;;;;;;;10.43;2.33;;;;;;;11.20;100.00;99214.03;5058621;28;20250;-61
2022/11/10 01:24:38;;;;;;;8.97;2.20;;;;;;;11.19;100.00;99215.00;5063105;28;20746;-61
2022/11/10 01:27:23;;;;;;;5.17;2.10;;;;;;;11.20;100.00;99221.06;5053017;28;20344;-60
2022/11/10 01:30:09;;;;;;;6.10;2.40;;;;;;;11.19;100.00;99216.78;5055184;28;20238;-61
2022/11/10 01:32:54;;;;;;;6.30;2.27;;;;;;;11.21;100.00;99225.31;5061399;28;20649;-62
2022/11/10 01:35:41;;;;;;;8.23;3.17;;;;;;;11.21;100.00;99231.34;5058230;28;20264;-61
2022/11/10 01:38:27;;;;;;;4.90;2.40;;;;;;;11.19;100.00;99227.25;5058066;28;20247;-61
2022/11/10 01:41:14;;;;;;;11.90;2.33;;;;;;;11.19;100.00;99232.47;5061417;28;20251;-62
2022/11/10 01:44:13;;;;;;;7.97;2.57;;;;;;;11.11;100.00;99235.78;5058204;28;20242;-61
2022/11/10 01:46:58;;;;;;;9.43;2.47;;;;;;;11.11;100.00;99237.56;5051022;28;20290;-61
2022/11/10 01:49:43;;;;;;;6.27;2.53;;;;;;;11.03;100.00;99239.09;5058350;28;20623;-61
2022/11/10 01:52:32;;;;;;;14.17;2.60;;;;;;;11.02;100.00;99242.66;5055752;28;20266;-61
2022/11/10 01:55:17;;;;;;;4.80;2.33;;;;;;;11.03;100.00;99249.53;5055142;28;20237;-61
2022/11/10 01:58:03;;;;;;;13.30;3.47;;;;;;;11.04;100.00;99251.19;5045560;28;20273;-61
2022/11/10 02:00:49;;;;;;;8.97;2.33;;;;;;;11.03;100.00;99246.91;5044163;28;20429;-61
2022/11/10 02:03:41;;;;;;;7.70;2.40;;;;;;;11.00;100.00;99254.22;5034294;28;20281;-61
2022/11/10 02:06:29;;;;;;;9.53;2.33;;;;;;;10.97;100.00;99255.31;5043718;28;20235;-61
2022/11/10 02:09:16;;;;;;;7.20;2.53;;;;;;;10.93;100.00;99260.00;5043528;28;20270;-61
2022/11/10 02:12:01;;;;;;;9.97;2.47;;;;;;;10.92;100.00;99257.50;5026975;28;20810;-61
2022/11/10 02:14:47;;;;;;;9.77;2.63;;;;;;;10.92;100.00;99263.56;5035243;28;20614;-61
2022/11/10 02:17:32;;;;;;;6.27;2.60;;;;;;;10.93;100.00;99269.59;5041248;28;20237;-61
2022/11/10 02:20:19;;;;;;;6.70;2.20;;;;;;;10.92;100.00;99267.97;5038559;28;20242;-60
2022/11/10 02:23:13;;;;;;;9.80;2.70;;;;;;;10.88;100.00;99261.34;5044270;28;20240;-60
2022/11/10 02:25:59;;;;;;;7.27;2.23;;;;;;;10.82;100.00;99278.41;5051530;28;20374;-61
2022/11/10 02:28:44;;;;;;;8.80;2.93;;;;;;;10.77;100.00;99275.38;5027671;28;20239;-61
2022/11/10 02:31:29;;;;;;;7.93;2.43;;;;;;;10.76;100.00;99274.53;5040988;28;20707;-60
2022/11/10 02:34:14;;;;;;;7.43;2.17;;;;;;;10.76;100.00;99281.56;5043627;28;20303;-60
2022/11/10 02:36:59;;;;;;;7.63;2.20;;;;;;;10.75;100.00;99280.72;5053751;28;20366;-61
2022/11/10 02:39:46;;;;;;;13.43;2.83;;;;;;;10.74;100.00;99291.31;5056571;28;20381;-60
2022/11/10 02:42:31;;;;;;;12.33;1.97;;;;;;;10.72;100.00;99288.81;5049613;28;20262;-61
2022/11/10 02:45:16;;;;;;;9.93;2.57;;;;;;;10.73;100.00;99290.47;5050466;28;20231;-60
2022/11/10 02:48:01;;;;;;;7.97;2.50;;;;;;;10.73;100.00;99282.66;5053499;28;20235;-61
2022/11/10 02:50:46;;;;;;;8.70;2.20;;;;;;;10.74;100.00;99279.06;5055456;28;20575;-61
2022/11/10 02:53:31;;;;;;;12.00;2.43;;;;;;;10.75;100.00;99282.53;5051440;28;20642;-61
2022/11/10 02:56:17;;;;;;;11.33;2.43;;;;;;;10.76;100.00;99274.53;5052197;28;20239;-61
2022/11/10 02:59:03;;;;;;;7.10;2.50;;;;;;;10.80;100.00;99279.50;5053660;28;20608;-61
2022/11/10 03:01:48;;;;;;;4.93;2.10;;;;;;;10.83;100.00;99287.06;5057717;28;20269;-61
2022/11/10 03:04:33;;;;;;;6.30;2.20;;;;;;;10.82;100.00;99296.69;5052261;28;20249;-61
2022/11/10 03:07:18;;;;;;;12.67;2.57;;;;;;;10.79;100.00;99299.56;5044551;28;20297;-61
2022/11/10 03:10:04;;;;;;;11.50;2.40;;;;;;;10.78;100.00;99306.56;5052404;28;20254;-61
2022/11/10 03:12:54;;;;;;;8.27;2.30;;;;;;;10.76;100.00;99312.91;5057070;28;20239;-61
2022/11/10 03:15:39;;;;;;;7.80;2.13;;;;;;;10.76;100.00;99316.31;5037930;28;20238;-61
2022/11/10 03:18:24;;;;;;;6.53;2.50;;;;;;;10.75;100.00;99319.88;5055081;28;20285;-61
2022/11/10 03:21:09;;;;;;;10.10;2.73;;;;;;;10.75;100.00;99330.34;5050019;28;20238;-62
2022/11/10 03:23:55;;;;;;;5.53;2.20;;;;;;;10.74;100.00;99322.66;5056776;28;20255;-61
2022/11/10 03:26:40;;;;;;;10.50;2.70;;;;;;;10.68;100.00;99325.81;5044493;28;20893;-61
2022/11/10 03:29:26;;;;;;;9.13;2.47;;;;;;;10.66;100.00;99327.72;5053260;28;20588;-61
2022/11/10 03:32:11;;;;;;;10.33;2.00;;;;;;;10.63;100.00;99332.25;5052825;28;20285;-60
2022/11/10 03:34:56;;;;;;;7.10;2.27;;;;;;;10.58;100.00;99334.44;5055605;28;20704;-61
2022/11/10 03:37:42;;;;;;;11.33;2.80;;;;;;;10.57;100.00;99332.78;5053425;28;20232;-61
2022/11/10 03:40:27;;;;;;;8.73;2.73;;;;;;;10.53;100.00;99348.84;5054237;28;20236;-61
2022/11/10 03:43:12;;;;;;;6.53;2.30;;;;;;;10.53;100.00;99348.84;5057395;28;20239;-62
2022/11/10 03:45:59;;;;;;;9.03;2.57;;;;;;;10.43;100.00;99352.25;5056463;28;20242;-61
2022/11/10 03:48:45;;;;;;;9.10;2.20;;;;;;;10.38;100.00;99354.41;5049646;28;20237;-61
2022/11/10 03:51:30;;;;;;;11.13;2.20;;;;;;;10.37;100.00;99355.34;5054304;28;20723;-61
2022/11/10 03:54:15;;;;;;;11.77;2.60;;;;;;;10.34;100.00;99353.81;5055157;28;20596;-61
2022/11/10 03:57:00;;;;;;;10.53;2.20;;;;;;;10.35;100.00;99354.66;5056113;28;20232;-61
2022/11/10 03:59:45;;;;;;;16.10;3.00;;;;;;;10.27;100.00;99357.09;5054301;28;20305;-61
2022/11/10 04:02:32;;;;;;;14.70;3.10;;;;;;;10.24;100.00;99357.34;5036699;28;20700;-61
2022/11/10 04:17:38;;;;;;;11.40;2.90;;;;;;;9.93;100.00;99380.81;5018590;28;20289;-61
2022/11/10 04:20:23;;;;;;;9.87;2.50;;;;;;;9.89;100.00;99388.88;5051595;28;20309;-61
2022/11/10 04:26:28;;;;;;;7.40;2.30;;;;;;;9.87;100.00;99400.41;5052294;28;20288;-61
2022/11/10 04:29:15;;;;;;;19.43;2.80;;;;;;;9.91;100.00;99399.19;5055627;28;20238;-61
2022/11/10 04:32:01;;;;;;;10.73;2.63;;;;;;;9.82;100.00;99397.34;5269774;22;20315;-61
2022/11/10 04:34:47;;;;;;;11.67;2.43;;;;;;;9.72;100.00;99402.47;5014342;28;20241;-62
2022/11/10 04:37:32;;;;;;;6.23;2.50;;;;;;;9.62;100.00;99401.56;5003681;28;20243;-61
2022/11/10 04:40:17;;;;;;;9.07;2.50;;;;;;;9.54;100.00;99400.44;5001342;28;20234;-61
2022/11/10 04:43:02;;;;;;;5.80;2.30;;;;;;;9.44;100.00;99418.59;5001906;28;20331;-61
2022/11/10 04:45:48;;;;;;;6.17;2.43;;;;;;;9.45;100.00;99420.25;4984664;28;20259;-61
2022/11/10 04:48:34;;;;;;;7.37;2.63;;;;;;;9.36;100.00;99417.56;4982781;28;20272;-61
2022/11/10 04:51:22;;;;;;;6.67;2.40;;;;;;;9.37;100.00;99429.66;4981786;28;20760;-61
2022/11/10 04:54:08;;;;;;;9.43;2.70;;;;;;;9.38;100.00;99426.09;4981925;28;20232;-61
2022/11/10 04:56:53;;;;;;;4.50;2.20;;;;;;;9.41;100.00;99428.47;4984506;28;20353;-61
2022/11/10 04:59:38;;;;;;;4.77;2.40;;;;;;;9.40;100.00;99430.22;5001167;28;20291;-61
2022/11/10 05:02:23;;;;;;;8.37;2.50;;;;;;;9.37;100.00;99433.06;5001415;28;20374;-59
2022/11/10 05:05:10;;;;;;;6.07;2.20;;;;;;;9.30;100.00;99431.91;5001583;28;20237;-61
2022/11/10 05:07:56;;;;;;;7.20;2.37;;;;;;;9.20;100.00;99434.44;5004124;28;20588;-59
2022/11/10 05:10:42;;;;;;;11.43;2.50;;;;;;;9.17;100.00;99439.88;5001116;28;20229;-60
2022/11/10 05:13:27;;;;;;;5.53;2.57;;;;;;;9.08;100.00;99438.81;5000697;28;20364;-60
2022/11/10 05:16:13;;;;;;;6.47;2.30;;;;;;;9.05;100.00;99433.84;5001332;28;20232;-60
2022/11/10 05:18:58;;;;;;;8.40;2.67;;;;;;;9.04;100.00;99436.59;5003680;28;20282;-60
2022/11/10 05:21:43;;;;;;;5.60;2.40;;;;;;;9.06;100.00;99439.91;5001075;28;20239;-60
2022/11/10 05:24:29;;;;;;;8.30;2.33;;;;;;;9.05;100.00;99448.66;4981462;28;20693;-60
2022/11/10 05:27:14;;;;;;;16.10;2.33;;;;;;;9.01;100.00;99448.91;4989296;28;20257;-59
2022/11/10 05:29:59;;;;;;;6.77;2.67;;;;;;;8.97;100.00;99447.47;4984491;28;20620;-61
2022/11/10 05:32:45;;;;;;;7.63;2.50;;;;;;;8.93;100.00;99443.47;4997774;28;20303;-60
2022/11/10 05:35:30;;;;;;;7.23;2.53;;;;;;;8.87;100.00;99451.75;5004820;28;20709;-60
2022/11/10 05:38:15;;;;;;;4.80;2.50;;;;;;;8.82;100.00;99448.69;5004258;28;20223;-60
2022/11/10 05:41:02;;;;;;;7.57;2.40;;;;;;;8.74;100.00;99448.44;4991766;28;20240;-60
2022/11/10 05:43:47;;;;;;;8.53;2.67;;;;;;;8.62;100.00;99445.84;4984746;28;20278;-60
2022/11/10 05:46:32;;;;;;;8.70;2.33;;;;;;;8.60;100.00;99439.09;5000671;28;20282;-60
2022/11/10 05:49:17;;;;;;;8.10;2.97;;;;;;;8.54;100.00;99441.22;4994888;28;20237;-59
2022/11/10 05:52:02;;;;;;;8.43;2.33;;;;;;;8.41;100.00;99453.47;5004777;28;20365;-60
2022/11/10 05:54:47;;;;;;;8.00;2.60;;;;;;;8.28;100.00;99469.19;5006295;28;20231;-60
2022/11/10 05:57:34;;;;;;;8.80;3.20;;;;;;;8.26;100.00;99473.69;5004224;28;20239;-59
2022/11/10 06:00:21;;;;;;;8.03;2.57;;;;;;;8.09;100.00;99477.53;5004177;28;20859;-59
2022/11/10 06:03:12;;;;;;;7.07;2.50;;;;;;;8.01;100.00;99482.47;5003875;28;20655;-60
2022/11/10 06:05:57;;;;;;;6.10;2.60;;;;;;;8.02;100.00;99481.53;5007435;28;20731;-61
2022/11/10 06:08:42;;;;;;;5.57;2.10;;;;;;;7.94;100.00;99489.91;5003773;28;20328;-59
2022/11/10 06:11:27;;;;;;;11.47;2.60;;;;;;;7.93;100.00;99496.03;5003665;28;20286;-60
2022/11/10 06:14:14;;;;;;;10.00;2.53;;;;;;;7.93;100.00;99501.25;5003392;28;20363;-60
2022/11/10 06:16:59;;;;;;;24.43;10.23;;;;;;;7.91;100.00;99505.72;5007080;28;20235;-60
2022/11/10 06:19:45;;;;;;;9.60;4.20;;;;;;;7.83;100.00;99512.31;5004601;28;20922;-61
2022/11/10 06:22:30;;;;;;;11.90;2.70;;;;;;;7.83;100.00;99512.31;4987788;28;20239;-60
2022/11/10 06:25:15;;;;;;;10.13;3.43;;;;;;;7.89;100.00;99524.03;4995580;28;20391;-60
2022/11/10 06:28:01;;;;;;;6.90;3.03;;;;;;;8.03;100.00;99535.19;4987751;28;20275;-61
2022/11/10 06:30:47;;;;;;;13.40;2.83;;;;;;;8.09;100.00;99532.97;5004071;28;20722;-61
2022/11/10 06:33:32;;;;;;;9.37;3.03;;;;;;;8.23;100.00;99552.75;4984646;28;20355;-61
2022/11/10 06:36:17;;;;;;;13.50;5.00;;;;;;;8.37;100.00;99556.97;4984216;28;20302;-61
2022/11/10 06:39:02;;;;;;;7.13;4.30;;;;;;;8.43;100.00;99560.88;4984149;28;20303;-61
2022/11/10 06:41:48;;;;;;;9.03;3.80;;;;;;;8.42;100.00;99572.22;4998298;28;20605;-61
2022/11/10 06:44:33;;;;;;;9.47;3.73;;;;;;;8.42;100.00;99578.28;5005302;28;20363;-61
2022/11/10 06:47:19;;;;;;;10.33;3.40;;;;;;;8.35;100.00;99577.06;4997529;28;20248;-62
2022/11/10 06:50:05;;;;;;;5.90;3.07;;;;;;;8.32;100.00;99587.69;5004722;28;20290;-61
2022/11/10 06:52:54;;;;;;;5.97;2.80;;;;;;;8.23;100.00;99591.78;5005987;28;20239;-61
2022/11/10 06:55:39;;;;;;;7.43;2.40;;;;;;;8.20;100.00;99597.19;4985122;28;20233;-61
2022/11/10 06:58:24;;;;;;;6.67;2.67;;;;;;;8.19;100.00;99592.94;4983959;28;20240;-61
2022/11/10 07:01:09;;;;;;;9.83;3.70;;;;;;;8.17;100.00;99587.03;4999746;28;20266;-59
2022/11/10 07:03:55;;;;;;;9.10;3.13;;;;;;;8.11;100.00;99580.50;4998439;28;20770;-61
2022/11/10 07:06:40;;;;;;;8.57;2.90;;;;;;;8.04;100.00;99592.28;4995513;28;20608;-60
2022/11/10 07:09:25;;;;;;;7.30;2.50;;;;;;;7.94;100.00;99612.94;4984086;28;20282;-61
2022/11/10 07:12:10;;;;;;;9.13;2.73;;;;;;;7.91;100.00;99610.56;4982836;28;20236;-61
2022/11/10 07:14:55;;;;;;;8.27;2.80;;;;;;;7.88;100.00;99621.16;4985358;28;20228;-61
2022/11/10 07:17:41;;;;;;;23.73;13.70;;;;;;;7.93;100.00;99636.44;4983901;28;20254;-60
2022/11/10 07:20:27;;;;;;;8.40;3.73;;;;;;;8.03;100.00;99645.22;4985452;28;20581;-60
2022/11/10 07:23:13;;;;;;;9.67;3.30;;;;;;;8.04;100.00;99646.91;4993127;28;20258;-60
2022/11/10 07:25:59;;;;;;;6.83;3.10;;;;;;;8.09;100.00;99643.94;4986383;28;20240;-59
2022/11/10 07:28:45;;;;;;;9.67;2.57;;;;;;;8.08;100.00;99643.13;5002403;28;21195;-60
2022/11/10 07:31:30;;;;;;;7.50;2.50;;;;;;;8.01;100.00;99647.13;5001932;28;20235;-60
2022/11/10 07:34:15;;;;;;;6.13;2.47;;;;;;;8.02;100.00;99650.53;5002377;28;20411;-60
2022/11/10 07:37:01;;;;;;;12.87;6.00;;;;;;;8.05;100.00;99671.13;5004745;28;20761;-60
2022/11/10 07:39:46;;;;;;;21.63;15.03;;;;;;;8.04;100.00;99677.25;5002408;28;20235;-60
2022/11/10 07:42:31;;;;;;;10.70;7.60;;;;;;;8.03;100.00;99680.78;5002647;28;21154;-60
2022/11/10 07:45:16;;;;;;;9.77;4.20;;;;;;;8.02;100.00;99682.56;5002422;28;20604;-60
2022/11/10 07:48:05;;;;;;;7.00;2.57;;;;;;;8.02;100.00;99676.53;5002715;28;20239;-60
2022/11/10 07:50:50;;;;;;;5.07;1.70;;;;;;;7.98;100.00;99686.31;5004194;28;20271;-61
2022/11/10 07:53:37;;;;;;;8.77;1.70;;;;;;;7.95;100.00;99683.94;5002009;28;20230;-60
2022/11/10 07:56:22;;;;;;;8.73;1.50;;;;;;;7.95;100.00;99691.75;4983330;28;20284;-61
2022/11/10 07:59:07;;;;;;;8.50;1.70;;;;;;;7.96;100.00;99693.41;4993827;28;20244;-60
2022/11/10 08:01:52;;;;;;;5.80;1.60;;;;;;;7.97;100.00;99697.66;5004634;28;20239;-60
2022/11/10 08:04:37;;;;;;;5.00;1.50;;;;;;;8.02;100.00;99703.38;4982230;28;20287;-61
2022/11/10 08:07:22;;;;;;;6.67;1.57;;;;;;;7.96;100.00;99712.41;4982490;28;20724;-60
2022/11/10 08:10:12;;;;;;;7.93;1.70;;;;;;;8.01;100.00;99700.88;4982402;28;20712;-60
2022/11/10 08:12:58;;;;;;;5.77;1.80;;;;;;;7.98;100.00;99702.75;4985137;28;20243;-60
2022/11/10 08:15:43;;;;;;;9.43;1.50;;;;;;;8.00;100.00;99714.81;4982839;28;20228;-61
2022/11/10 08:18:28;;;;;;;4.40;1.60;;;;;;;8.03;100.00;99712.84;5001690;28;20235;-59
2022/11/10 08:21:13;;;;;;;9.77;2.17;;;;;;;8.09;100.00;99717.63;5001481;28;20284;-60
2022/11/10 08:23:58;;;;;;;6.03;2.17;;;;;;;8.16;100.00;99730.19;5004731;28;20378;-60
2022/11/10 08:26:45;;;;;;;10.33;2.33;;;;;;;8.21;100.00;99717.69;4996324;28;20248;-60
2022/11/10 08:29:30;;;;;;;7.47;2.47;;;;;;;8.27;100.00;99722.47;5002072;28;20374;-61
2022/11/10 08:32:15;;;;;;;15.30;2.00;;;;;;;8.31;100.00;99730.84;5001159;28;20589;-60
2022/11/10 08:35:00;;;;;;;5.53;1.83;;;;;;;8.37;100.00;99733.03;4996966;28;20743;-60
2022/11/10 08:37:45;;;;;;;6.17;1.73;;;;;;;8.44;100.00;99730.84;4982675;28;20268;-59
2022/11/10 08:40:30;;;;;;;5.57;1.53;;;;;;;8.48;100.00;99737.47;5000339;28;20988;-60
2022/11/10 08:43:18;;;;;;;4.10;1.60;;;;;;;8.58;100.00;99733.28;5001101;28;20254;-59
2022/11/10 08:46:03;;;;;;;5.17;1.87;;;;;;;8.67;100.00;99748.25;4986273;28;20233;-60
2022/11/10 08:48:48;;;;;;;6.60;1.43;;;;;;;8.77;100.00;99743.22;4989361;28;20283;-60
2022/11/10 08:51:33;;;;;;;6.70;1.30;;;;;;;8.91;100.00;99754.41;5001632;28;20235;-60
2022/11/10 08:54:18;;;;;;;6.60;1.50;;;;;;;8.97;100.00;99756.56;5000836;28;20236;-60
2022/11/10 08:57:04;;;;;;;5.50;1.50;;;;;;;9.06;100.00;99752.44;5001250;28;20227;-63
2022/11/10 08:59:50;;;;;;;5.60;1.50;;;;;;;9.19;100.00;99760.16;5002813;28;20960;-61
2022/11/10 09:02:35;;;;;;;7.37;1.70;;;;;;;9.30;100.00;99771.47;5001338;28;20270;-60
2022/11/10 09:05:20;;;;;;;6.03;1.60;;;;;;;9.37;100.00;99765.78;5000057;28;20316;-60
2022/11/10 09:08:06;;;;;;;3.60;1.17;;;;;;;9.47;100.00;99771.97;5005299;28;20758;-60
2022/11/10 09:10:51;;;;;;;6.70;2.23;;;;;;;9.52;100.00;99780.28;5007974;28;20595;-60
2022/11/10 09:13:36;;;;;;;11.77;3.30;;;;;;;9.67;100.00;99780.88;5005851;28;20231;-60
2022/11/10 09:16:22;;;;;;;10.87;4.57;;;;;;;9.80;100.00;99787.78;5003868;28;20239;-61
2022/11/10 09:19:07;;;;;;;6.63;2.63;;;;;;;9.88;100.00;99785.41;5004938;28;20691;-61
2022/11/10 09:21:52;;;;;;;5.17;2.80;;;;;;;10.00;100.00;99792.31;5007398;28;20235;-61
2022/11/10 09:24:37;;;;;;;10.63;2.93;;;;;;;10.06;100.00;99798.00;4991957;28;20241;-60
2022/11/10 09:27:23;;;;;;;8.13;3.50;;;;;;;10.14;100.00;99792.97;4993408;28;20241;-61
2022/11/10 09:30:09;;;;;;;10.73;2.97;;;;;;;10.15;100.00;99803.31;4985974;28;20245;-61
2022/11/10 09:32:57;;;;;;;8.30;2.63;;;;;;;10.25;100.00;99807.81;4992257;28;20737;-61
2022/11/10 09:35:42;;;;;;;5.17;2.13;;;;;;;10.29;100.00;99811.84;4985489;28;20241;-60
2022/11/10 09:38:27;;;;;;;9.07;3.97;;;;;;;10.30;100.00;99809.09;4985267;28;20237;-61
2022/11/10 09:41:14;;;;;;;15.20;4.70;;;;;;;10.51;100.00;99825.88;4983610;28;20233;-59
2022/11/10 09:44:05;;;;;;;12.20;4.87;;;;;;;10.58;100.00;99830.47;4987866;28;20229;-61
2022/11/10 09:46:56;;;;;;;9.63;5.50;;;;;;;10.68;100.00;99819.31;5004485;28;20252;-61
2022/11/10 09:49:49;;;;;;;9.70;4.07;;;;;;;10.75;100.00;99816.06;5004399;28;20704;-60
2022/11/10 09:52:37;;;;;;;13.10;4.70;;;;;;;10.85;100.00;99817.94;4984567;28;20248;-60
2022/11/10 09:55:31;;;;;;;12.30;4.80;;;;;;;10.92;100.00;99819.97;4984656;28;20315;-60
2022/11/10 09:58:17;;;;;;;6.93;4.03;;;;;;;10.99;100.00;99825.50;4983785;28;20238;-61
2022/11/10 10:01:13;;;;;;;8.57;3.77;;;;;;;11.07;100.00;99827.50;4984900;28;20245;-61
2022/11/10 10:04:08;;;;;;;10.33;4.67;;;;;;;11.12;100.00;99832.34;5005556;28;20268;-61
2022/11/10 10:06:58;;;;;;;11.63;5.17;;;;;;;11.18;100.00;99839.69;4996962;28;20253;-61
2022/11/10 10:09:52;;;;;;;12.67;4.97;;;;;;;11.19;100.00;99843.97;5004255;28;20238;-60
2022/11/10 10:12:54;;;;;;;11.30;5.60;;;;;;;11.32;100.00;99847.25;4984095;28;20381;-61
2022/11/10 10:15:48;;;;;;;11.07;4.70;;;;;;;11.47;100.00;99852.19;5004436;28;20723;-61
2022/11/10 10:18:41;;;;;;;12.70;5.83;;;;;;;11.55;100.00;99851.53;4984764;28;20237;-61
2022/11/10 10:21:40;;;;;;;12.67;5.50;;;;;;;11.57;100.00;99849.63;4992091;28;20588;-61
2022/11/10 10:24:29;;;;;;;11.60;6.07;;;;;;;11.60;100.00;99838.91;4983308;28;20377;-61
2022/11/10 10:27:19;;;;;;;11.93;6.10;;;;;;;11.70;100.00;99841.56;4984976;28;20238;-60
2022/11/10 10:30:12;;;;;;;11.03;6.30;;;;;;;11.63;100.00;99836.03;4994676;28;20717;-60
2022/11/10 10:33:08;;;;;;;12.33;5.87;;;;;;;11.70;100.00;99842.41;4998351;28;20606;-61
2022/11/10 10:35:54;;;;;;;10.37;6.40;;;;;;;11.78;100.00;99845.22;5003820;28;20724;-61
2022/11/10 10:38:41;;;;;;;8.67;5.13;;;;;;;11.87;100.00;99846.22;5003139;28;20292;-61
2022/11/10 10:41:29;;;;;;;11.50;5.63;;;;;;;11.95;100.00;99835.13;5003185;28;20254;-61
2022/11/10 10:44:16;;;;;;;8.87;5.53;;;;;;;12.00;100.00;99837.38;5002925;28;20587;-61
2022/11/10 10:47:03;;;;;;;11.03;5.23;;;;;;;12.08;100.00;99838.41;5003271;28;20709;-62
2022/11/10 10:49:48;;;;;;;13.23;5.93;;;;;;;12.20;100.00;99846.97;5004962;28;20241;-61
2022/11/10 10:52:33;;;;;;;12.33;5.27;;;;;;;12.20;100.00;99839.13;5003149;28;20241;-61
2022/11/10 10:55:18;;;;;;;7.90;5.03;;;;;;;12.16;100.00;99840.34;5002981;28;20643;-62
2022/11/10 10:58:18;;;;;;;10.57;5.43;;;;;;;12.27;100.00;99844.66;5003288;28;20590;-61
2022/11/10 11:01:06;;;;;;;11.00;5.00;;;;;;;12.39;100.00;99848.81;5003155;28;20264;-61
2022/11/10 11:03:52;;;;;;;11.57;4.97;;;;;;;12.30;100.00;99852.25;5005082;28;20249;-61
2022/11/10 11:06:38;;;;;;;7.23;4.83;;;;;;;12.38;100.00;99859.44;5003731;28;20242;-61
2022/11/10 11:09:24;;;;;;;7.00;4.67;;;;;;;12.13;100.00;99848.47;5003237;28;20715;-61
2022/11/10 11:12:12;;;;;;;11.03;5.27;;;;;;;12.19;99.26;99847.13;5002855;28;20237;-61
2022/11/10 11:15:18;;;;;;;9.93;4.83;;;;;;;12.18;100.00;99855.94;5005611;28;20361;-61
2022/11/10 11:18:13;;;;;;;6.27;3.73;;;;;;;12.20;100.00;99857.44;5001335;28;20233;-61
2022/11/10 11:21:02;;;;;;;6.27;3.57;;;;;;;12.21;100.00;99851.25;5004177;28;20250;-61
2022/11/10 11:24:04;;;;;;;9.73;3.83;;;;;;;12.21;99.49;99851.25;5002524;28;20388;-61
2022/11/10 11:26:56;;;;;;;7.78;3.92;;;;;;;12.32;99.23;99844.28;4983689;28;20857;-61
2022/11/10 11:29:54;;;;;;;5.03;3.20;;;;;;;12.34;98.69;99835.31;5002163;28;20283;-61
2022/11/10 11:33:04;;;;;;;9.30;3.47;;;;;;;12.24;98.52;99831.81;5002697;28;20305;-61
2022/11/10 11:35:56;;;;;;;8.67;3.70;;;;;;;12.18;98.50;99830.56;4997390;28;20626;-61
2022/11/10 11:38:52;;;;;;;5.83;3.70;;;;;;;12.25;98.41;99844.78;4983320;28;20766;-61
2022/11/10 11:41:44;;;;;;;7.77;3.00;;;;;;;12.40;96.71;99841.81;4989739;28;20238;-62
2022/11/10 11:44:45;;;;;;;11.70;3.93;;;;;;;12.36;98.23;99840.44;5002265;28;20304;-61
2022/11/10 11:47:46;;;;;;;17.10;3.33;;;;;;;12.44;98.72;99842.38;4981177;28;20235;-61
2022/11/10 11:50:40;;;;;;;6.27;3.40;;;;;;;12.41;98.48;99840.84;4983735;28;20251;-61
2022/11/10 11:53:46;;;;;;;9.83;3.60;;;;;;;12.32;99.96;99845.09;4983065;28;20370;-63
2022/11/10 11:56:35;;;;;;;10.43;4.03;;;;;;;12.44;100.00;99847.59;4994151;28;20242;-61
2022/11/10 11:59:49;;;;;;;8.73;3.80;;;;;;;12.55;96.20;99840.50;5002019;28;20233;-61
2022/11/10 12:03:16;;;;;;;7.93;3.90;;;;;;;12.75;96.03;99835.28;4994096;28;20244;-61
2022/11/10 12:06:16;;;;;;;4.37;3.07;;;;;;;12.88;95.38;99847.28;5002107;28;20232;-61
2022/11/10 12:09:07;;;;;;;8.70;3.30;;;;;;;12.91;93.53;99840.00;5001087;28;20238;-61
2022/11/10 12:12:06;;;;;;;7.93;3.53;;;;;;;12.96;92.70;99834.34;5004223;28;20240;-61
2022/11/10 12:15:01;;;;;;;6.70;3.77;;;;;;;12.89;93.05;99835.84;5003090;28;20257;-61
2022/11/10 12:17:57;;;;;;;8.00;3.07;;;;;;;12.80;94.46;99829.66;5002348;28;20281;-61
2022/11/10 12:20:52;;;;;;;10.47;3.30;;;;;;;12.80;95.92;99825.22;4996400;28;20695;-61
2022/11/10 12:23:52;;;;;;;5.57;3.03;;;;;;;12.96;94.37;99829.09;5001511;28;20242;-61
2022/11/10 12:26:43;;;;;;;8.30;3.47;;;;;;;13.18;91.93;99819.31;5002435;28;20259;-61
2022/11/10 12:29:33;;;;;;;6.87;3.33;;;;;;;13.13;91.55;99827.63;4980545;28;20237;-61
2022/11/10 12:32:24;;;;;;;4.50;2.57;;;;;;;13.11;91.59;99829.53;4979817;28;20250;-61
2022/11/10 12:35:15;;;;;;;6.17;2.83;;;;;;;13.13;92.49;99822.38;4999715;28;20239;-61
2022/11/10 12:38:08;;;;;;;7.80;2.90;;;;;;;13.22;91.68;99828.56;4988750;28;20697;-61
2022/11/10 12:41:02;;;;;;;10.80;3.77;;;;;;;13.08;91.33;99821.94;4982387;28;20379;-61
2022/11/10 12:44:01;;;;;;;7.50;2.73;;;;;;;12.91;92.95;99828.69;4992819;28;20280;-61
2022/11/10 12:46:50;;;;;;;5.13;3.03;;;;;;;12.87;93.91;99835.16;5001243;28;20718;-61
2022/11/10 12:49:38;;;;;;;6.63;3.00;;;;;;;12.80;92.50;99835.69;5001485;28;20238;-61
2022/11/10 12:52:27;;;;;;;6.23;3.23;;;;;;;12.91;91.97;99844.41;5002114;28;20254;-61
2022/11/10 12:55:14;;;;;;;6.63;2.90;;;;;;;13.11;90.72;99840.03;5001707;28;20288;-61
2022/11/10 12:58:01;;;;;;;6.50;2.83;;;;;;;13.50;89.84;99847.91;5004158;28;20245;-61
2022/11/10 13:00:56;;;;;;;6.87;2.83;;;;;;;13.88;87.38;99845.34;5002191;28;20257;-61
2022/11/10 13:03:54;;;;;;;8.97;2.70;;;;;;;14.23;83.56;99843.03;4995894;28;20588;-61
2022/11/10 13:06:47;;;;;;;7.47;2.80;;;;;;;14.21;83.51;99844.97;5002137;28;20237;-61
2022/11/10 13:09:35;;;;;;;5.53;2.87;;;;;;;14.27;83.37;99845.22;4990692;28;20333;-61
2022/11/10 13:12:22;;;;;;;4.80;2.50;;;;;;;14.27;82.06;99853.09;4981819;28;20294;-61
2022/11/10 13:15:45;;;;;;;11.07;3.50;;;;;;;14.06;84.16;99849.84;4989876;28;20354;-61
2022/11/10 13:18:54;;;;;;;7.67;3.10;;;;;;;13.63;85.06;99846.78;5001646;28;20276;-61
2022/11/10 13:22:03;;;;;;;4.50;2.40;;;;;;;13.58;87.23;99849.84;4974493;28;20246;-61